sensor_id;sensor_type;location;lat;lon;timestamp;P1;durP1;ratioP1;P2;durP2;ratioP2
51800;SDS011;37855;53.204;6.568;2023-04-15T00:00:10;12.25;;;5.72;;
51800;SDS011;37855;53.204;6.568;2023-04-15T00:02:36;12.38;;;5.00;;
51800;SDS011;37855;53.204;6.568;2023-04-15T00:05:03;13.85;;;5.10;;
51800;SDS011;37855;53.204;6.568;2023-04-15T00:07:30;16.00;;;5.33;;
51800;SDS011;37855;53.204;6.568;2023-04-15T00:09:55;11.35;;;5.35;;
51800;SDS011;37855;53.204;6.568;2023-04-15T00:12:22;11.25;;;4.75;;
51800;SDS011;37855;53.204;6.568;2023-04-15T00:14:48;11.73;;;4.80;;
51800;SDS011;37855;53.204;6.568;2023-04-15T00:17:15;13.40;;;4.80;;
51800;SDS011;37855;53.204;6.568;2023-04-15T00:19:41;12.55;;;5.35;;
51800;SDS011;37855;53.204;6.568;2023-04-15T00:22:08;11.00;;;5.40;;
51800;SDS011;37855;53.204;6.568;2023-04-15T00:24:33;14.03;;;5.53;;
51800;SDS011;37855;53.204;6.568;2023-04-15T00:26:59;12.25;;;5.13;;
51800;SDS011;37855;53.204;6.568;2023-04-15T00:29:25;14.00;;;5.90;;
51800;SDS011;37855;53.204;6.568;2023-04-15T00:31:52;14.38;;;5.82;;
51800;SDS011;37855;53.204;6.568;2023-04-15T00:34:18;10.45;;;5.10;;
51800;SDS011;37855;53.204;6.568;2023-04-15T00:36:44;14.00;;;6.13;;
51800;SDS011;37855;53.204;6.568;2023-04-15T00:39:10;10.48;;;5.25;;
51800;SDS011;37855;53.204;6.568;2023-04-15T00:41:35;11.55;;;5.60;;
51800;SDS011;37855;53.204;6.568;2023-04-15T00:44:04;11.13;;;5.73;;
51800;SDS011;37855;53.204;6.568;2023-04-15T00:46:31;13.68;;;5.35;;
51800;SDS011;37855;53.204;6.568;2023-04-15T00:48:59;10.27;;;5.68;;
51800;SDS011;37855;53.204;6.568;2023-04-15T00:51:25;11.45;;;5.97;;
51800;SDS011;37855;53.204;6.568;2023-04-15T00:53:51;12.80;;;5.87;;
51800;SDS011;37855;53.204;6.568;2023-04-15T00:56:17;10.57;;;5.90;;
51800;SDS011;37855;53.204;6.568;2023-04-15T00:58:46;13.52;;;6.32;;
51800;SDS011;37855;53.204;6.568;2023-04-15T01:01:12;13.70;;;6.37;;
51800;SDS011;37855;53.204;6.568;2023-04-15T01:03:38;10.02;;;5.47;;
51800;SDS011;37855;53.204;6.568;2023-04-15T01:06:03;13.13;;;6.37;;
51800;SDS011;37855;53.204;6.568;2023-04-15T01:08:29;12.73;;;7.00;;
51800;SDS011;37855;53.204;6.568;2023-04-15T01:10:55;13.98;;;7.13;;
51800;SDS011;37855;53.204;6.568;2023-04-15T01:13:23;11.85;;;7.10;;
51800;SDS011;37855;53.204;6.568;2023-04-15T01:15:52;13.10;;;6.60;;
51800;SDS011;37855;53.204;6.568;2023-04-15T01:18:18;14.18;;;7.47;;
51800;SDS011;37855;53.204;6.568;2023-04-15T01:20:44;14.05;;;6.85;;
51800;SDS011;37855;53.204;6.568;2023-04-15T01:23:10;15.30;;;6.95;;
51800;SDS011;37855;53.204;6.568;2023-04-15T01:25:37;14.80;;;7.13;;
51800;SDS011;37855;53.204;6.568;2023-04-15T01:28:03;14.13;;;6.50;;
51800;SDS011;37855;53.204;6.568;2023-04-15T01:30:33;11.48;;;6.38;;
51800;SDS011;37855;53.204;6.568;2023-04-15T01:32:59;13.20;;;6.93;;
51800;SDS011;37855;53.204;6.568;2023-04-15T01:35:25;14.10;;;7.78;;
51800;SDS011;37855;53.204;6.568;2023-04-15T01:37:52;14.97;;;7.63;;
51800;SDS011;37855;53.204;6.568;2023-04-15T01:40:19;11.85;;;6.90;;
51800;SDS011;37855;53.204;6.568;2023-04-15T01:42:45;13.57;;;7.43;;
51800;SDS011;37855;53.204;6.568;2023-04-15T01:45:14;13.18;;;7.00;;
51800;SDS011;37855;53.204;6.568;2023-04-15T01:47:39;12.50;;;7.50;;
51800;SDS011;37855;53.204;6.568;2023-04-15T01:50:05;12.68;;;7.32;;
51800;SDS011;37855;53.204;6.568;2023-04-15T01:52:32;12.55;;;6.75;;
51800;SDS011;37855;53.204;6.568;2023-04-15T01:54:58;13.97;;;7.00;;
51800;SDS011;37855;53.204;6.568;2023-04-15T01:57:23;12.63;;;6.97;;
51800;SDS011;37855;53.204;6.568;2023-04-15T01:59:49;11.23;;;6.82;;
51800;SDS011;37855;53.204;6.568;2023-04-15T02:02:15;12.87;;;7.23;;
51800;SDS011;37855;53.204;6.568;2023-04-15T02:04:41;12.47;;;6.60;;
51800;SDS011;37855;53.204;6.568;2023-04-15T02:07:07;18.35;;;7.70;;
51800;SDS011;37855;53.204;6.568;2023-04-15T02:09:32;11.63;;;6.30;;
51800;SDS011;37855;53.204;6.568;2023-04-15T02:11:58;14.48;;;7.63;;
51800;SDS011;37855;53.204;6.568;2023-04-15T02:14:24;13.63;;;7.67;;
51800;SDS011;37855;53.204;6.568;2023-04-15T02:16:51;16.30;;;8.73;;
51800;SDS011;37855;53.204;6.568;2023-04-15T02:19:16;13.73;;;8.23;;
51800;SDS011;37855;53.204;6.568;2023-04-15T02:21:42;16.33;;;8.47;;
51800;SDS011;37855;53.204;6.568;2023-04-15T02:24:09;15.53;;;8.40;;
51800;SDS011;37855;53.204;6.568;2023-04-15T02:26:36;14.88;;;8.30;;
51800;SDS011;37855;53.204;6.568;2023-04-15T02:29:02;13.60;;;8.82;;
51800;SDS011;37855;53.204;6.568;2023-04-15T02:31:27;14.30;;;8.43;;
51800;SDS011;37855;53.204;6.568;2023-04-15T02:33:53;16.23;;;8.25;;
51800;SDS011;37855;53.204;6.568;2023-04-15T02:36:19;15.13;;;8.33;;
51800;SDS011;37855;53.204;6.568;2023-04-15T02:38:45;15.55;;;8.52;;
51800;SDS011;37855;53.204;6.568;2023-04-15T02:41:11;15.93;;;9.40;;
51800;SDS011;37855;53.204;6.568;2023-04-15T02:43:36;15.80;;;8.70;;
51800;SDS011;37855;53.204;6.568;2023-04-15T02:46:04;18.13;;;9.18;;
51800;SDS011;37855;53.204;6.568;2023-04-15T02:48:32;14.38;;;8.32;;
51800;SDS011;37855;53.204;6.568;2023-04-15T02:51:17;16.33;;;8.43;;
51800;SDS011;37855;53.204;6.568;2023-04-15T02:53:45;17.17;;;9.07;;
51800;SDS011;37855;53.204;6.568;2023-04-15T02:56:12;14.73;;;8.73;;
51800;SDS011;37855;53.204;6.568;2023-04-15T02:58:39;14.27;;;8.35;;
51800;SDS011;37855;53.204;6.568;2023-04-15T03:01:05;15.00;;;9.25;;
51800;SDS011;37855;53.204;6.568;2023-04-15T03:03:32;16.20;;;8.73;;
51800;SDS011;37855;53.204;6.568;2023-04-15T03:05:59;16.63;;;8.57;;
51800;SDS011;37855;53.204;6.568;2023-04-15T03:08:24;15.40;;;8.85;;
51800;SDS011;37855;53.204;6.568;2023-04-15T03:10:50;19.60;;;9.57;;
51800;SDS011;37855;53.204;6.568;2023-04-15T03:13:17;14.45;;;9.43;;
51800;SDS011;37855;53.204;6.568;2023-04-15T03:15:45;15.82;;;9.18;;
51800;SDS011;37855;53.204;6.568;2023-04-15T03:18:11;16.80;;;9.65;;
51800;SDS011;37855;53.204;6.568;2023-04-15T03:20:39;16.10;;;9.07;;
51800;SDS011;37855;53.204;6.568;2023-04-15T03:23:05;16.53;;;9.83;;
51800;SDS011;37855;53.204;6.568;2023-04-15T03:25:30;15.20;;;8.88;;
51800;SDS011;37855;53.204;6.568;2023-04-15T03:27:56;18.00;;;9.57;;
51800;SDS011;37855;53.204;6.568;2023-04-15T03:30:22;19.00;;;9.55;;
51800;SDS011;37855;53.204;6.568;2023-04-15T03:32:48;15.90;;;9.00;;
51800;SDS011;37855;53.204;6.568;2023-04-15T03:35:13;18.70;;;9.60;;
51800;SDS011;37855;53.204;6.568;2023-04-15T03:37:39;17.60;;;10.20;;
51800;SDS011;37855;53.204;6.568;2023-04-15T03:40:08;18.30;;;10.40;;
51800;SDS011;37855;53.204;6.568;2023-04-15T03:42:34;17.80;;;10.07;;
51800;SDS011;37855;53.204;6.568;2023-04-15T03:45:00;17.75;;;10.02;;
51800;SDS011;37855;53.204;6.568;2023-04-15T03:47:25;18.07;;;10.30;;
51800;SDS011;37855;53.204;6.568;2023-04-15T03:49:51;19.23;;;10.43;;
51800;SDS011;37855;53.204;6.568;2023-04-15T03:52:17;18.02;;;10.80;;
51800;SDS011;37855;53.204;6.568;2023-04-15T03:54:42;17.00;;;9.93;;
51800;SDS011;37855;53.204;6.568;2023-04-15T03:57:08;19.35;;;10.85;;
51800;SDS011;37855;53.204;6.568;2023-04-15T03:59:33;19.67;;;11.77;;
51800;SDS011;37855;53.204;6.568;2023-04-15T04:01:59;19.53;;;11.00;;
51800;SDS011;37855;53.204;6.568;2023-04-15T04:04:25;15.67;;;9.57;;
51800;SDS011;37855;53.204;6.568;2023-04-15T04:06:53;17.23;;;10.10;;
51800;SDS011;37855;53.204;6.568;2023-04-15T04:09:18;16.60;;;10.47;;
51800;SDS011;37855;53.204;6.568;2023-04-15T04:11:44;17.50;;;10.50;;
51800;SDS011;37855;53.204;6.568;2023-04-15T04:14:10;17.73;;;10.60;;
51800;SDS011;37855;53.204;6.568;2023-04-15T04:16:36;19.13;;;10.40;;
51800;SDS011;37855;53.204;6.568;2023-04-15T04:19:03;16.70;;;10.45;;
51800;SDS011;37855;53.204;6.568;2023-04-15T04:21:28;17.67;;;11.00;;
51800;SDS011;37855;53.204;6.568;2023-04-15T04:23:54;17.30;;;10.20;;
51800;SDS011;37855;53.204;6.568;2023-04-15T04:26:20;17.05;;;10.15;;
51800;SDS011;37855;53.204;6.568;2023-04-15T04:28:46;15.65;;;9.18;;
51800;SDS011;37855;53.204;6.568;2023-04-15T04:31:12;15.53;;;9.53;;
51800;SDS011;37855;53.204;6.568;2023-04-15T04:33:38;15.70;;;9.82;;
51800;SDS011;37855;53.204;6.568;2023-04-15T04:36:04;15.10;;;9.40;;
51800;SDS011;37855;53.204;6.568;2023-04-15T04:38:30;14.73;;;9.23;;
51800;SDS011;37855;53.204;6.568;2023-04-15T04:40:59;14.23;;;8.60;;
51800;SDS011;37855;53.204;6.568;2023-04-15T04:43:24;14.95;;;8.90;;
51800;SDS011;37855;53.204;6.568;2023-04-15T04:45:51;13.80;;;8.23;;
51800;SDS011;37855;53.204;6.568;2023-04-15T04:48:16;15.83;;;8.80;;
51800;SDS011;37855;53.204;6.568;2023-04-15T04:50:42;14.73;;;8.32;;
51800;SDS011;37855;53.204;6.568;2023-04-15T04:53:09;16.35;;;8.85;;
51800;SDS011;37855;53.204;6.568;2023-04-15T04:55:38;15.77;;;9.27;;
51800;SDS011;37855;53.204;6.568;2023-04-15T04:58:03;14.98;;;8.88;;
51800;SDS011;37855;53.204;6.568;2023-04-15T05:00:30;15.70;;;8.70;;
51800;SDS011;37855;53.204;6.568;2023-04-15T05:02:56;15.40;;;8.73;;
51800;SDS011;37855;53.204;6.568;2023-04-15T05:05:22;13.30;;;7.70;;
51800;SDS011;37855;53.204;6.568;2023-04-15T05:07:48;15.53;;;8.70;;
51800;SDS011;37855;53.204;6.568;2023-04-15T05:10:14;14.40;;;8.48;;
51800;SDS011;37855;53.204;6.568;2023-04-15T05:12:41;14.23;;;8.90;;
51800;SDS011;37855;53.204;6.568;2023-04-15T05:15:07;16.08;;;9.15;;
51800;SDS011;37855;53.204;6.568;2023-04-15T05:17:33;14.07;;;9.30;;
51800;SDS011;37855;53.204;6.568;2023-04-15T05:19:59;15.52;;;9.05;;
51800;SDS011;37855;53.204;6.568;2023-04-15T05:22:26;14.55;;;9.05;;
51800;SDS011;37855;53.204;6.568;2023-04-15T05:24:51;16.23;;;9.77;;
51800;SDS011;37855;53.204;6.568;2023-04-15T05:27:17;15.32;;;9.07;;
51800;SDS011;37855;53.204;6.568;2023-04-15T05:29:44;15.23;;;8.65;;
51800;SDS011;37855;53.204;6.568;2023-04-15T05:32:10;14.17;;;8.40;;
51800;SDS011;37855;53.204;6.568;2023-04-15T05:34:36;14.20;;;8.55;;
51800;SDS011;37855;53.204;6.568;2023-04-15T05:37:01;15.73;;;10.37;;
51800;SDS011;37855;53.204;6.568;2023-04-15T05:39:27;17.00;;;9.02;;
51800;SDS011;37855;53.204;6.568;2023-04-15T05:41:53;18.53;;;10.00;;
51800;SDS011;37855;53.204;6.568;2023-04-15T05:44:18;15.80;;;9.05;;
51800;SDS011;37855;53.204;6.568;2023-04-15T05:46:45;16.43;;;9.33;;
51800;SDS011;37855;53.204;6.568;2023-04-15T05:49:11;18.33;;;9.52;;
51800;SDS011;37855;53.204;6.568;2023-04-15T05:51:36;15.77;;;9.47;;
51800;SDS011;37855;53.204;6.568;2023-04-15T05:54:02;15.77;;;10.00;;
51800;SDS011;37855;53.204;6.568;2023-04-15T05:56:28;15.97;;;10.03;;
51800;SDS011;37855;53.204;6.568;2023-04-15T05:58:54;16.30;;;9.23;;
51800;SDS011;37855;53.204;6.568;2023-04-15T06:01:24;15.73;;;8.65;;
51800;SDS011;37855;53.204;6.568;2023-04-15T06:03:50;15.05;;;8.93;;
51800;SDS011;37855;53.204;6.568;2023-04-15T06:06:18;16.60;;;10.07;;
51800;SDS011;37855;53.204;6.568;2023-04-15T06:08:44;16.77;;;8.63;;
51800;SDS011;37855;53.204;6.568;2023-04-15T06:11:10;16.33;;;9.18;;
51800;SDS011;37855;53.204;6.568;2023-04-15T06:13:39;17.23;;;9.10;;
51800;SDS011;37855;53.204;6.568;2023-04-15T06:16:05;14.37;;;8.57;;
51800;SDS011;37855;53.204;6.568;2023-04-15T06:18:32;15.15;;;9.25;;
51800;SDS011;37855;53.204;6.568;2023-04-15T06:20:57;14.57;;;9.05;;
51800;SDS011;37855;53.204;6.568;2023-04-15T06:23:23;14.20;;;8.27;;
51800;SDS011;37855;53.204;6.568;2023-04-15T06:25:49;15.35;;;8.40;;
51800;SDS011;37855;53.204;6.568;2023-04-15T06:28:15;13.45;;;6.88;;
51800;SDS011;37855;53.204;6.568;2023-04-15T06:30:41;13.93;;;8.00;;
51800;SDS011;37855;53.204;6.568;2023-04-15T06:33:06;14.75;;;8.45;;
51800;SDS011;37855;53.204;6.568;2023-04-15T06:35:32;15.13;;;7.77;;
51800;SDS011;37855;53.204;6.568;2023-04-15T06:37:58;13.75;;;8.18;;
51800;SDS011;37855;53.204;6.568;2023-04-15T06:40:23;12.23;;;7.03;;
51800;SDS011;37855;53.204;6.568;2023-04-15T06:42:49;14.07;;;7.70;;
51800;SDS011;37855;53.204;6.568;2023-04-15T06:45:17;15.97;;;8.83;;
51800;SDS011;37855;53.204;6.568;2023-04-15T06:47:43;13.98;;;7.82;;
51800;SDS011;37855;53.204;6.568;2023-04-15T06:50:08;15.47;;;8.00;;
51800;SDS011;37855;53.204;6.568;2023-04-15T06:52:35;16.20;;;9.07;;
51800;SDS011;37855;53.204;6.568;2023-04-15T06:55:01;18.03;;;8.20;;
51800;SDS011;37855;53.204;6.568;2023-04-15T06:57:26;12.55;;;7.15;;
51800;SDS011;37855;53.204;6.568;2023-04-15T06:59:53;16.23;;;8.63;;
51800;SDS011;37855;53.204;6.568;2023-04-15T07:02:19;16.35;;;8.35;;
51800;SDS011;37855;53.204;6.568;2023-04-15T07:04:45;14.43;;;8.10;;
51800;SDS011;37855;53.204;6.568;2023-04-15T07:07:11;14.77;;;8.20;;
51800;SDS011;37855;53.204;6.568;2023-04-15T07:09:40;15.70;;;8.43;;
51800;SDS011;37855;53.204;6.568;2023-04-15T07:12:06;14.93;;;8.27;;
51800;SDS011;37855;53.204;6.568;2023-04-15T07:14:31;14.88;;;8.07;;
51800;SDS011;37855;53.204;6.568;2023-04-15T07:16:57;14.83;;;8.27;;
51800;SDS011;37855;53.204;6.568;2023-04-15T07:19:22;13.65;;;7.35;;
51800;SDS011;37855;53.204;6.568;2023-04-15T07:21:48;14.93;;;8.00;;
51800;SDS011;37855;53.204;6.568;2023-04-15T07:24:14;13.02;;;6.90;;
51800;SDS011;37855;53.204;6.568;2023-04-15T07:26:42;14.10;;;7.13;;
51800;SDS011;37855;53.204;6.568;2023-04-15T07:29:12;12.07;;;6.60;;
51800;SDS011;37855;53.204;6.568;2023-04-15T07:31:38;10.27;;;6.00;;
51800;SDS011;37855;53.204;6.568;2023-04-15T07:34:05;12.52;;;6.72;;
51800;SDS011;37855;53.204;6.568;2023-04-15T07:36:31;12.98;;;6.25;;
51800;SDS011;37855;53.204;6.568;2023-04-15T07:38:57;10.23;;;5.13;;
51800;SDS011;37855;53.204;6.568;2023-04-15T07:41:23;11.55;;;6.15;;
51800;SDS011;37855;53.204;6.568;2023-04-15T07:43:49;10.40;;;5.93;;
51800;SDS011;37855;53.204;6.568;2023-04-15T07:46:18;14.27;;;7.03;;
51800;SDS011;37855;53.204;6.568;2023-04-15T07:48:44;11.60;;;5.88;;
51800;SDS011;37855;53.204;6.568;2023-04-15T07:51:10;8.80;;;4.88;;
51800;SDS011;37855;53.204;6.568;2023-04-15T07:53:36;10.67;;;5.70;;
51800;SDS011;37855;53.204;6.568;2023-04-15T07:56:02;11.75;;;5.80;;
51800;SDS011;37855;53.204;6.568;2023-04-15T07:58:28;11.32;;;5.53;;
51800;SDS011;37855;53.204;6.568;2023-04-15T08:00:54;10.60;;;5.20;;
51800;SDS011;37855;53.204;6.568;2023-04-15T08:03:20;10.55;;;6.53;;
51800;SDS011;37855;53.204;6.568;2023-04-15T08:05:46;10.48;;;5.28;;
51800;SDS011;37855;53.204;6.568;2023-04-15T08:08:12;11.23;;;5.10;;
51800;SDS011;37855;53.204;6.568;2023-04-15T08:10:38;10.75;;;5.65;;
51800;SDS011;37855;53.204;6.568;2023-04-15T08:13:03;8.97;;;5.07;;
51800;SDS011;37855;53.204;6.568;2023-04-15T08:15:30;9.82;;;5.25;;
51800;SDS011;37855;53.204;6.568;2023-04-15T08:17:56;10.77;;;5.20;;
51800;SDS011;37855;53.204;6.568;2023-04-15T08:20:24;12.73;;;5.45;;
51800;SDS011;37855;53.204;6.568;2023-04-15T08:22:51;7.60;;;4.43;;
51800;SDS011;37855;53.204;6.568;2023-04-15T08:25:17;10.13;;;5.03;;
51800;SDS011;37855;53.204;6.568;2023-04-15T08:27:44;8.95;;;4.50;;
51800;SDS011;37855;53.204;6.568;2023-04-15T08:30:10;8.73;;;4.10;;
51800;SDS011;37855;53.204;6.568;2023-04-15T08:32:36;7.53;;;3.60;;
51800;SDS011;37855;53.204;6.568;2023-04-15T08:35:02;8.07;;;4.38;;
51800;SDS011;37855;53.204;6.568;2023-04-15T08:37:28;8.80;;;3.33;;
51800;SDS011;37855;53.204;6.568;2023-04-15T08:39:54;7.90;;;4.37;;
51800;SDS011;37855;53.204;6.568;2023-04-15T08:42:22;7.97;;;3.40;;
51800;SDS011;37855;53.204;6.568;2023-04-15T08:44:55;8.77;;;3.20;;
51800;SDS011;37855;53.204;6.568;2023-04-15T08:47:22;8.20;;;3.88;;
51800;SDS011;37855;53.204;6.568;2023-04-15T08:49:53;9.97;;;3.60;;
51800;SDS011;37855;53.204;6.568;2023-04-15T08:52:23;8.38;;;3.85;;
51800;SDS011;37855;53.204;6.568;2023-04-15T08:54:50;7.38;;;3.58;;
51800;SDS011;37855;53.204;6.568;2023-04-15T08:57:22;7.03;;;3.10;;
51800;SDS011;37855;53.204;6.568;2023-04-15T08:59:53;7.00;;;2.70;;
51800;SDS011;37855;53.204;6.568;2023-04-15T09:02:21;8.40;;;3.20;;
51800;SDS011;37855;53.204;6.568;2023-04-15T09:04:51;8.55;;;3.13;;
51800;SDS011;37855;53.204;6.568;2023-04-15T09:07:17;7.90;;;3.22;;
51800;SDS011;37855;53.204;6.568;2023-04-15T09:09:47;5.15;;;2.65;;
51800;SDS011;37855;53.204;6.568;2023-04-15T09:12:12;7.63;;;2.75;;
51800;SDS011;37855;53.204;6.568;2023-04-15T09:14:39;5.97;;;2.80;;
51800;SDS011;37855;53.204;6.568;2023-04-15T09:17:05;5.90;;;2.72;;
51800;SDS011;37855;53.204;6.568;2023-04-15T09:19:36;4.43;;;2.40;;
51800;SDS011;37855;53.204;6.568;2023-04-15T09:22:02;5.10;;;2.90;;
51800;SDS011;37855;53.204;6.568;2023-04-15T09:24:35;9.23;;;3.10;;
51800;SDS011;37855;53.204;6.568;2023-04-15T09:27:03;4.35;;;2.58;;
51800;SDS011;37855;53.204;6.568;2023-04-15T09:29:28;5.00;;;2.28;;
51800;SDS011;37855;53.204;6.568;2023-04-15T09:31:54;4.03;;;2.30;;
51800;SDS011;37855;53.204;6.568;2023-04-15T09:34:20;4.60;;;2.63;;
51800;SDS011;37855;53.204;6.568;2023-04-15T09:39:13;8.35;;;2.60;;
51800;SDS011;37855;53.204;6.568;2023-04-15T09:41:39;4.97;;;2.45;;
51800;SDS011;37855;53.204;6.568;2023-04-15T09:44:05;4.82;;;2.40;;
51800;SDS011;37855;53.204;6.568;2023-04-15T09:46:40;4.15;;;2.00;;
51800;SDS011;37855;53.204;6.568;2023-04-15T09:49:07;5.33;;;2.33;;
51800;SDS011;37855;53.204;6.568;2023-04-15T09:51:34;6.07;;;2.60;;
51800;SDS011;37855;53.204;6.568;2023-04-15T09:54:03;5.85;;;2.45;;
51800;SDS011;37855;53.204;6.568;2023-04-15T09:56:35;4.78;;;2.40;;
51800;SDS011;37855;53.204;6.568;2023-04-15T09:59:08;7.23;;;2.10;;
51800;SDS011;37855;53.204;6.568;2023-04-15T10:01:34;6.50;;;2.10;;
51800;SDS011;37855;53.204;6.568;2023-04-15T10:04:01;6.03;;;2.00;;
51800;SDS011;37855;53.204;6.568;2023-04-15T10:06:28;6.22;;;2.10;;
51800;SDS011;37855;53.204;6.568;2023-04-15T10:08:55;6.90;;;2.60;;
51800;SDS011;37855;53.204;6.568;2023-04-15T10:11:22;4.77;;;2.00;;
51800;SDS011;37855;53.204;6.568;2023-04-15T10:13:49;6.43;;;2.22;;
51800;SDS011;37855;53.204;6.568;2023-04-15T10:16:16;4.35;;;1.92;;
51800;SDS011;37855;53.204;6.568;2023-04-15T10:18:44;7.13;;;2.30;;
51800;SDS011;37855;53.204;6.568;2023-04-15T10:21:20;6.60;;;2.15;;
51800;SDS011;37855;53.204;6.568;2023-04-15T10:23:47;7.10;;;2.60;;
51800;SDS011;37855;53.204;6.568;2023-04-15T10:26:13;4.28;;;2.10;;
51800;SDS011;37855;53.204;6.568;2023-04-15T10:28:42;4.85;;;2.25;;
51800;SDS011;37855;53.204;6.568;2023-04-15T10:31:10;6.93;;;2.30;;
51800;SDS011;37855;53.204;6.568;2023-04-15T10:33:37;6.78;;;2.50;;
51800;SDS011;37855;53.204;6.568;2023-04-15T10:36:03;8.90;;;2.67;;
51800;SDS011;37855;53.204;6.568;2023-04-15T10:38:32;7.80;;;2.47;;
51800;SDS011;37855;53.204;6.568;2023-04-15T10:41:13;6.35;;;2.30;;
51800;SDS011;37855;53.204;6.568;2023-04-15T10:43:44;6.90;;;2.95;;
51800;SDS011;37855;53.204;6.568;2023-04-15T10:46:10;8.00;;;3.20;;
51800;SDS011;37855;53.204;6.568;2023-04-15T10:48:36;6.70;;;2.90;;
51800;SDS011;37855;53.204;6.568;2023-04-15T10:51:02;5.50;;;2.42;;
51800;SDS011;37855;53.204;6.568;2023-04-15T10:53:28;5.70;;;2.50;;
51800;SDS011;37855;53.204;6.568;2023-04-15T10:55:55;4.43;;;2.15;;
51800;SDS011;37855;53.204;6.568;2023-04-15T10:58:22;5.95;;;2.47;;
51800;SDS011;37855;53.204;6.568;2023-04-15T11:00:50;6.43;;;2.65;;
51800;SDS011;37855;53.204;6.568;2023-04-15T11:03:20;7.15;;;2.75;;
51800;SDS011;37855;53.204;6.568;2023-04-15T11:06:07;9.23;;;2.90;;
51800;SDS011;37855;53.204;6.568;2023-04-15T11:08:52;6.32;;;2.70;;
51800;SDS011;37855;53.204;6.568;2023-04-15T11:11:19;6.47;;;3.08;;
51800;SDS011;37855;53.204;6.568;2023-04-15T11:13:49;7.10;;;2.60;;
51800;SDS011;37855;53.204;6.568;2023-04-15T11:16:16;6.77;;;2.30;;
51800;SDS011;37855;53.204;6.568;2023-04-15T11:18:42;9.57;;;2.40;;
51800;SDS011;37855;53.204;6.568;2023-04-15T11:21:23;10.10;;;3.00;;
51800;SDS011;37855;53.204;6.568;2023-04-15T11:23:50;7.28;;;1.90;;
51800;SDS011;37855;53.204;6.568;2023-04-15T11:26:15;8.73;;;2.20;;
51800;SDS011;37855;53.204;6.568;2023-04-15T11:28:42;6.45;;;2.20;;
51800;SDS011;37855;53.204;6.568;2023-04-15T11:31:13;10.73;;;2.00;;
51800;SDS011;37855;53.204;6.568;2023-04-15T11:34:05;7.10;;;2.43;;
51800;SDS011;37855;53.204;6.568;2023-04-15T11:36:29;6.72;;;2.17;;
51800;SDS011;37855;53.204;6.568;2023-04-15T11:38:58;7.63;;;2.35;;
51800;SDS011;37855;53.204;6.568;2023-04-15T11:41:24;9.82;;;2.65;;
51800;SDS011;37855;53.204;6.568;2023-04-15T11:43:51;5.07;;;2.20;;
51800;SDS011;37855;53.204;6.568;2023-04-15T11:46:17;6.90;;;2.15;;
51800;SDS011;37855;53.204;6.568;2023-04-15T11:48:43;8.90;;;2.28;;
51800;SDS011;37855;53.204;6.568;2023-04-15T11:51:11;9.43;;;2.40;;
51800;SDS011;37855;53.204;6.568;2023-04-15T11:53:47;6.17;;;2.20;;
51800;SDS011;37855;53.204;6.568;2023-04-15T11:56:18;5.10;;;2.25;;
51800;SDS011;37855;53.204;6.568;2023-04-15T11:58:54;6.88;;;2.63;;
51800;SDS011;37855;53.204;6.568;2023-04-15T12:01:35;7.70;;;2.20;;
51800;SDS011;37855;53.204;6.568;2023-04-15T12:04:11;10.63;;;2.08;;
51800;SDS011;37855;53.204;6.568;2023-04-15T12:06:38;10.23;;;2.87;;
51800;SDS011;37855;53.204;6.568;2023-04-15T12:09:10;6.93;;;2.40;;
51800;SDS011;37855;53.204;6.568;2023-04-15T12:14:25;8.88;;;2.33;;
51800;SDS011;37855;53.204;6.568;2023-04-15T12:16:59;6.97;;;1.80;;
51800;SDS011;37855;53.204;6.568;2023-04-15T12:22:00;9.65;;;2.67;;
51800;SDS011;37855;53.204;6.568;2023-04-15T12:24:30;7.15;;;2.38;;
51800;SDS011;37855;53.204;6.568;2023-04-15T12:26:56;9.32;;;3.10;;
51800;SDS011;37855;53.204;6.568;2023-04-15T12:29:26;9.20;;;2.37;;
51800;SDS011;37855;53.204;6.568;2023-04-15T12:34:33;7.97;;;2.20;;
51800;SDS011;37855;53.204;6.568;2023-04-15T12:37:02;5.35;;;1.77;;
51800;SDS011;37855;53.204;6.568;2023-04-15T12:39:30;7.97;;;2.33;;
51800;SDS011;37855;53.204;6.568;2023-04-15T12:41:59;10.17;;;2.33;;
51800;SDS011;37855;53.204;6.568;2023-04-15T12:44:25;6.13;;;2.00;;
51800;SDS011;37855;53.204;6.568;2023-04-15T12:46:52;10.27;;;3.03;;
51800;SDS011;37855;53.204;6.568;2023-04-15T12:49:19;9.70;;;2.22;;
51800;SDS011;37855;53.204;6.568;2023-04-15T12:51:49;8.40;;;2.70;;
51800;SDS011;37855;53.204;6.568;2023-04-15T12:54:16;10.80;;;2.00;;
51800;SDS011;37855;53.204;6.568;2023-04-15T12:56:43;8.88;;;2.30;;
51800;SDS011;37855;53.204;6.568;2023-04-15T12:59:10;7.95;;;2.17;;
51800;SDS011;37855;53.204;6.568;2023-04-15T13:01:36;7.13;;;1.98;;
51800;SDS011;37855;53.204;6.568;2023-04-15T13:04:03;7.72;;;2.00;;
51800;SDS011;37855;53.204;6.568;2023-04-15T13:06:29;6.80;;;2.17;;
51800;SDS011;37855;53.204;6.568;2023-04-15T13:08:57;5.85;;;1.83;;
51800;SDS011;37855;53.204;6.568;2023-04-15T13:11:23;7.65;;;2.33;;
51800;SDS011;37855;53.204;6.568;2023-04-15T13:13:50;7.93;;;2.25;;
51800;SDS011;37855;53.204;6.568;2023-04-15T13:16:18;10.48;;;2.40;;
51800;SDS011;37855;53.204;6.568;2023-04-15T13:18:44;9.00;;;2.00;;
51800;SDS011;37855;53.204;6.568;2023-04-15T13:21:11;11.43;;;2.00;;
51800;SDS011;37855;53.204;6.568;2023-04-15T13:23:37;8.93;;;2.13;;
51800;SDS011;37855;53.204;6.568;2023-04-15T13:26:02;10.00;;;2.10;;
51800;SDS011;37855;53.204;6.568;2023-04-15T13:28:31;8.75;;;1.88;;
51800;SDS011;37855;53.204;6.568;2023-04-15T13:30:57;6.95;;;2.25;;
51800;SDS011;37855;53.204;6.568;2023-04-15T13:33:24;8.55;;;2.53;;
51800;SDS011;37855;53.204;6.568;2023-04-15T13:35:50;11.30;;;2.30;;
51800;SDS011;37855;53.204;6.568;2023-04-15T13:38:16;8.90;;;2.60;;
51800;SDS011;37855;53.204;6.568;2023-04-15T13:40:41;10.50;;;3.03;;
51800;SDS011;37855;53.204;6.568;2023-04-15T13:43:07;8.67;;;1.87;;
51800;SDS011;37855;53.204;6.568;2023-04-15T13:45:33;10.40;;;2.50;;
51800;SDS011;37855;53.204;6.568;2023-04-15T13:47:58;9.10;;;2.10;;
51800;SDS011;37855;53.204;6.568;2023-04-15T13:50:24;7.37;;;2.43;;
51800;SDS011;37855;53.204;6.568;2023-04-15T13:52:50;10.82;;;2.40;;
51800;SDS011;37855;53.204;6.568;2023-04-15T13:55:18;10.65;;;2.35;;
51800;SDS011;37855;53.204;6.568;2023-04-15T13:57:44;9.97;;;2.77;;
51800;SDS011;37855;53.204;6.568;2023-04-15T14:00:10;5.68;;;2.50;;
51800;SDS011;37855;53.204;6.568;2023-04-15T14:02:36;10.23;;;2.33;;
51800;SDS011;37855;53.204;6.568;2023-04-15T14:05:03;5.57;;;2.03;;
51800;SDS011;37855;53.204;6.568;2023-04-15T14:07:29;9.97;;;2.50;;
51800;SDS011;37855;53.204;6.568;2023-04-15T14:09:55;8.63;;;2.30;;
51800;SDS011;37855;53.204;6.568;2023-04-15T14:12:21;16.63;;;2.58;;
51800;SDS011;37855;53.204;6.568;2023-04-15T14:14:47;12.53;;;2.30;;
51800;SDS011;37855;53.204;6.568;2023-04-15T14:17:12;12.05;;;2.65;;
51800;SDS011;37855;53.204;6.568;2023-04-15T14:19:38;7.93;;;2.60;;
51800;SDS011;37855;53.204;6.568;2023-04-15T14:22:04;10.02;;;2.22;;
51800;SDS011;37855;53.204;6.568;2023-04-15T14:24:30;13.47;;;2.40;;
51800;SDS011;37855;53.204;6.568;2023-04-15T14:26:57;10.02;;;2.58;;
51800;SDS011;37855;53.204;6.568;2023-04-15T14:29:23;7.93;;;2.47;;
51800;SDS011;37855;53.204;6.568;2023-04-15T14:31:49;11.80;;;2.45;;
51800;SDS011;37855;53.204;6.568;2023-04-15T14:34:15;9.10;;;2.70;;
51800;SDS011;37855;53.204;6.568;2023-04-15T14:36:41;12.52;;;2.40;;
51800;SDS011;37855;53.204;6.568;2023-04-15T14:39:07;12.07;;;2.28;;
51800;SDS011;37855;53.204;6.568;2023-04-15T14:41:33;10.17;;;2.40;;
51800;SDS011;37855;53.204;6.568;2023-04-15T14:43:59;11.05;;;2.65;;
51800;SDS011;37855;53.204;6.568;2023-04-15T14:46:27;11.13;;;3.20;;